sensor_id;sensor_type;location;lat;lon;timestamp;P1;durP1;ratioP1;P2;durP2;ratioP2
25780;SDS011;13626;48.128;11.628;2023-03-30T00:00:44;6.13;;;2.35;;
25780;SDS011;13626;48.128;11.628;2023-03-30T00:03:12;9.98;;;2.13;;
25780;SDS011;13626;48.128;11.628;2023-03-30T00:05:39;4.43;;;1.50;;
25780;SDS011;13626;48.128;11.628;2023-03-30T00:08:08;8.13;;;1.92;;
25780;SDS011;13626;48.128;11.628;2023-03-30T00:10:35;8.10;;;2.40;;
25780;SDS011;13626;48.128;11.628;2023-03-30T00:13:03;5.55;;;1.80;;
25780;SDS011;13626;48.128;11.628;2023-03-30T00:15:31;7.28;;;2.58;;
25780;SDS011;13626;48.128;11.628;2023-03-30T00:17:58;9.63;;;3.78;;
25780;SDS011;13626;48.128;11.628;2023-03-30T00:20:26;7.50;;;2.78;;
25780;SDS011;13626;48.128;11.628;2023-03-30T00:22:57;7.20;;;2.40;;
25780;SDS011;13626;48.128;11.628;2023-03-30T00:25:24;5.57;;;1.70;;
25780;SDS011;13626;48.128;11.628;2023-03-30T00:27:51;7.05;;;1.92;;
25780;SDS011;13626;48.128;11.628;2023-03-30T00:30:19;5.93;;;1.83;;
25780;SDS011;13626;48.128;11.628;2023-03-30T00:32:46;15.95;;;3.67;;
25780;SDS011;13626;48.128;11.628;2023-03-30T00:35:13;7.72;;;1.70;;
25780;SDS011;13626;48.128;11.628;2023-03-30T00:37:41;6.32;;;2.00;;
25780;SDS011;13626;48.128;11.628;2023-03-30T00:40:15;8.07;;;2.03;;
25780;SDS011;13626;48.128;11.628;2023-03-30T00:42:42;9.05;;;2.58;;
25780;SDS011;13626;48.128;11.628;2023-03-30T00:48:02;3.58;;;2.00;;
25780;SDS011;13626;48.128;11.628;2023-03-30T00:50:29;7.78;;;2.08;;
25780;SDS011;13626;48.128;11.628;2023-03-30T00:53:02;6.63;;;1.67;;
25780;SDS011;13626;48.128;11.628;2023-03-30T00:55:32;6.38;;;1.48;;
25780;SDS011;13626;48.128;11.628;2023-03-30T00:58:00;10.00;;;2.63;;
25780;SDS011;13626;48.128;11.628;2023-03-30T01:00:27;4.22;;;1.83;;
25780;SDS011;13626;48.128;11.628;2023-03-30T01:02:58;6.05;;;1.83;;
25780;SDS011;13626;48.128;11.628;2023-03-30T01:05:26;7.05;;;1.83;;
25780;SDS011;13626;48.128;11.628;2023-03-30T01:07:54;6.07;;;2.00;;
25780;SDS011;13626;48.128;11.628;2023-03-30T01:10:23;9.02;;;2.35;;
25780;SDS011;13626;48.128;11.628;2023-03-30T01:12:51;5.78;;;2.05;;
25780;SDS011;13626;48.128;11.628;2023-03-30T01:15:19;4.53;;;1.58;;
25780;SDS011;13626;48.128;11.628;2023-03-30T01:18:01;7.13;;;1.95;;
25780;SDS011;13626;48.128;11.628;2023-03-30T01:23:32;6.45;;;1.58;;
25780;SDS011;13626;48.128;11.628;2023-03-30T01:26:08;9.48;;;2.00;;
25780;SDS011;13626;48.128;11.628;2023-03-30T01:28:42;4.97;;;1.50;;
25780;SDS011;13626;48.128;11.628;2023-03-30T01:46:29;4.53;;;1.45;;
25780;SDS011;13626;48.128;11.628;2023-03-30T01:49:09;9.20;;;2.05;;
25780;SDS011;13626;48.128;11.628;2023-03-30T01:51:39;7.90;;;2.60;;
25780;SDS011;13626;48.128;11.628;2023-03-30T01:54:09;6.55;;;1.80;;
25780;SDS011;13626;48.128;11.628;2023-03-30T01:56:40;5.07;;;1.60;;
25780;SDS011;13626;48.128;11.628;2023-03-30T01:59:11;5.25;;;2.05;;
25780;SDS011;13626;48.128;11.628;2023-03-30T02:01:40;6.85;;;1.60;;
25780;SDS011;13626;48.128;11.628;2023-03-30T02:04:08;11.40;;;2.22;;
25780;SDS011;13626;48.128;11.628;2023-03-30T02:06:37;7.97;;;1.80;;
25780;SDS011;13626;48.128;11.628;2023-03-30T02:09:15;7.03;;;2.35;;
25780;SDS011;13626;48.128;11.628;2023-03-30T02:11:44;12.73;;;1.98;;
25780;SDS011;13626;48.128;11.628;2023-03-30T02:14:12;7.65;;;1.83;;
25780;SDS011;13626;48.128;11.628;2023-03-30T02:16:44;8.00;;;1.80;;
25780;SDS011;13626;48.128;11.628;2023-03-30T02:19:12;6.32;;;1.80;;
25780;SDS011;13626;48.128;11.628;2023-03-30T02:21:40;5.75;;;1.63;;
25780;SDS011;13626;48.128;11.628;2023-03-30T02:24:11;7.47;;;1.98;;
25780;SDS011;13626;48.128;11.628;2023-03-30T02:26:49;9.57;;;1.70;;
25780;SDS011;13626;48.128;11.628;2023-03-30T02:29:17;7.57;;;2.30;;
25780;SDS011;13626;48.128;11.628;2023-03-30T02:31:45;8.57;;;1.77;;
25780;SDS011;13626;48.128;11.628;2023-03-30T02:47:11;8.30;;;2.20;;
25780;SDS011;13626;48.128;11.628;2023-03-30T02:59:59;8.75;;;2.30;;
25780;SDS011;13626;48.128;11.628;2023-03-30T03:02:34;9.35;;;1.95;;
25780;SDS011;13626;48.128;11.628;2023-03-30T03:05:03;10.82;;;1.88;;
25780;SDS011;13626;48.128;11.628;2023-03-30T03:07:30;12.38;;;2.60;;
25780;SDS011;13626;48.128;11.628;2023-03-30T03:09:59;13.02;;;2.28;;
25780;SDS011;13626;48.128;11.628;2023-03-30T03:12:26;8.18;;;1.80;;
25780;SDS011;13626;48.128;11.628;2023-03-30T03:14:56;9.55;;;2.08;;
25780;SDS011;13626;48.128;11.628;2023-03-30T03:17:27;9.80;;;2.53;;
25780;SDS011;13626;48.128;11.628;2023-03-30T03:20:00;11.75;;;2.35;;
25780;SDS011;13626;48.128;11.628;2023-03-30T03:22:29;5.03;;;2.38;;
25780;SDS011;13626;48.128;11.628;2023-03-30T03:24:56;9.90;;;2.15;;
25780;SDS011;13626;48.128;11.628;2023-03-30T03:27:24;17.20;;;2.42;;
25780;SDS011;13626;48.128;11.628;2023-03-30T03:29:51;10.18;;;2.25;;
25780;SDS011;13626;48.128;11.628;2023-03-30T03:32:18;12.35;;;2.60;;
25780;SDS011;13626;48.128;11.628;2023-03-30T03:34:45;10.48;;;2.63;;
25780;SDS011;13626;48.128;11.628;2023-03-30T03:37:13;14.57;;;3.53;;
25780;SDS011;13626;48.128;11.628;2023-03-30T03:39:40;8.35;;;2.65;;
25780;SDS011;13626;48.128;11.628;2023-03-30T03:42:08;15.38;;;2.90;;
25780;SDS011;13626;48.128;11.628;2023-03-30T03:44:35;15.20;;;2.63;;
25780;SDS011;13626;48.128;11.628;2023-03-30T03:47:02;15.68;;;3.22;;
25780;SDS011;13626;48.128;11.628;2023-03-30T03:49:30;8.05;;;2.42;;
25780;SDS011;13626;48.128;11.628;2023-03-30T03:51:57;8.82;;;2.70;;
25780;SDS011;13626;48.128;11.628;2023-03-30T03:54:24;13.20;;;2.33;;
25780;SDS011;13626;48.128;11.628;2023-03-30T03:56:51;15.38;;;3.63;;
25780;SDS011;13626;48.128;11.628;2023-03-30T03:59:18;13.45;;;2.55;;
25780;SDS011;13626;48.128;11.628;2023-03-30T04:01:45;11.43;;;2.42;;
25780;SDS011;13626;48.128;11.628;2023-03-30T04:04:13;11.63;;;2.60;;
25780;SDS011;13626;48.128;11.628;2023-03-30T04:06:40;15.38;;;3.10;;
25780;SDS011;13626;48.128;11.628;2023-03-30T04:09:07;14.88;;;3.25;;
25780;SDS011;13626;48.128;11.628;2023-03-30T04:11:34;9.30;;;2.95;;
25780;SDS011;13626;48.128;11.628;2023-03-30T04:14:02;8.68;;;2.40;;
25780;SDS011;13626;48.128;11.628;2023-03-30T04:16:29;8.77;;;2.75;;
25780;SDS011;13626;48.128;11.628;2023-03-30T04:18:56;19.33;;;3.60;;
25780;SDS011;13626;48.128;11.628;2023-03-30T04:21:25;13.60;;;4.15;;
25780;SDS011;13626;48.128;11.628;2023-03-30T04:23:55;19.98;;;3.33;;
25780;SDS011;13626;48.128;11.628;2023-03-30T04:26:22;16.27;;;3.35;;
25780;SDS011;13626;48.128;11.628;2023-03-30T04:28:49;8.68;;;3.20;;
25780;SDS011;13626;48.128;11.628;2023-03-30T04:31:19;14.90;;;3.58;;
25780;SDS011;13626;48.128;11.628;2023-03-30T04:33:47;14.77;;;3.92;;
25780;SDS011;13626;48.128;11.628;2023-03-30T04:36:19;17.42;;;3.95;;
25780;SDS011;13626;48.128;11.628;2023-03-30T04:38:47;14.45;;;4.28;;
25780;SDS011;13626;48.128;11.628;2023-03-30T04:41:29;14.55;;;4.03;;
25780;SDS011;13626;48.128;11.628;2023-03-30T04:44:01;9.10;;;3.03;;
25780;SDS011;13626;48.128;11.628;2023-03-30T04:46:28;13.65;;;3.67;;
25780;SDS011;13626;48.128;11.628;2023-03-30T04:48:57;22.30;;;3.90;;
25780;SDS011;13626;48.128;11.628;2023-03-30T04:51:24;10.40;;;3.55;;
25780;SDS011;13626;48.128;11.628;2023-03-30T04:53:51;15.30;;;3.38;;
25780;SDS011;13626;48.128;11.628;2023-03-30T04:56:18;12.05;;;3.20;;
25780;SDS011;13626;48.128;11.628;2023-03-30T04:58:46;15.18;;;3.47;;
25780;SDS011;13626;48.128;11.628;2023-03-30T05:01:13;11.73;;;3.95;;
25780;SDS011;13626;48.128;11.628;2023-03-30T05:03:40;12.27;;;3.53;;
25780;SDS011;13626;48.128;11.628;2023-03-30T05:06:07;16.58;;;3.33;;
25780;SDS011;13626;48.128;11.628;2023-03-30T05:08:35;15.82;;;3.92;;
25780;SDS011;13626;48.128;11.628;2023-03-30T05:11:04;13.73;;;3.30;;
25780;SDS011;13626;48.128;11.628;2023-03-30T05:13:31;9.43;;;3.28;;
25780;SDS011;13626;48.128;11.628;2023-03-30T05:15:59;17.65;;;3.67;;
25780;SDS011;13626;48.128;11.628;2023-03-30T05:18:26;19.08;;;3.50;;
25780;SDS011;13626;48.128;11.628;2023-03-30T05:20:56;11.23;;;3.05;;
25780;SDS011;13626;48.128;11.628;2023-03-30T05:23:24;14.05;;;3.17;;
25780;SDS011;13626;48.128;11.628;2023-03-30T05:25:51;11.77;;;3.40;;
25780;SDS011;13626;48.128;11.628;2023-03-30T05:28:20;17.90;;;3.40;;
25780;SDS011;13626;48.128;11.628;2023-03-30T05:30:54;11.35;;;3.42;;
25780;SDS011;13626;48.128;11.628;2023-03-30T05:33:22;15.85;;;3.40;;
25780;SDS011;13626;48.128;11.628;2023-03-30T05:35:50;13.30;;;3.65;;
25780;SDS011;13626;48.128;11.628;2023-03-30T05:38:17;10.93;;;4.03;;
25780;SDS011;13626;48.128;11.628;2023-03-30T05:40:45;9.52;;;3.08;;
25780;SDS011;13626;48.128;11.628;2023-03-30T05:43:12;10.48;;;3.50;;
25780;SDS011;13626;48.128;11.628;2023-03-30T05:45:39;12.63;;;3.28;;
25780;SDS011;13626;48.128;11.628;2023-03-30T05:48:09;17.15;;;3.92;;
25780;SDS011;13626;48.128;11.628;2023-03-30T05:50:36;12.60;;;3.33;;
25780;SDS011;13626;48.128;11.628;2023-03-30T05:53:03;9.73;;;3.13;;
25780;SDS011;13626;48.128;11.628;2023-03-30T05:55:31;18.20;;;3.97;;
25780;SDS011;13626;48.128;11.628;2023-03-30T05:57:58;13.65;;;3.92;;
25780;SDS011;13626;48.128;11.628;2023-03-30T06:00:25;12.68;;;3.58;;
25780;SDS011;13626;48.128;11.628;2023-03-30T06:02:54;16.08;;;3.25;;
25780;SDS011;13626;48.128;11.628;2023-03-30T06:05:21;11.80;;;3.22;;
25780;SDS011;13626;48.128;11.628;2023-03-30T06:07:49;11.10;;;3.85;;
25780;SDS011;13626;48.128;11.628;2023-03-30T06:10:16;14.93;;;3.35;;
25780;SDS011;13626;48.128;11.628;2023-03-30T06:12:44;15.52;;;3.38;;
25780;SDS011;13626;48.128;11.628;2023-03-30T06:15:12;10.77;;;3.25;;
25780;SDS011;13626;48.128;11.628;2023-03-30T06:17:39;11.20;;;3.65;;
25780;SDS011;13626;48.128;11.628;2023-03-30T06:20:08;16.23;;;3.42;;
25780;SDS011;13626;48.128;11.628;2023-03-30T06:22:38;14.63;;;3.70;;
25780;SDS011;13626;48.128;11.628;2023-03-30T06:25:07;12.52;;;3.40;;
25780;SDS011;13626;48.128;11.628;2023-03-30T06:27:35;18.27;;;3.53;;
25780;SDS011;13626;48.128;11.628;2023-03-30T06:30:02;14.05;;;3.35;;
25780;SDS011;13626;48.128;11.628;2023-03-30T06:32:30;12.15;;;3.22;;
25780;SDS011;13626;48.128;11.628;2023-03-30T06:34:57;18.73;;;4.50;;
25780;SDS011;13626;48.128;11.628;2023-03-30T06:37:24;15.35;;;3.50;;
25780;SDS011;13626;48.128;11.628;2023-03-30T06:39:51;13.85;;;3.22;;
25780;SDS011;13626;48.128;11.628;2023-03-30T06:42:18;13.57;;;3.65;;
25780;SDS011;13626;48.128;11.628;2023-03-30T06:44:45;10.55;;;3.72;;
25780;SDS011;13626;48.128;11.628;2023-03-30T06:47:15;13.55;;;2.92;;
25780;SDS011;13626;48.128;11.628;2023-03-30T06:49:42;15.05;;;3.28;;
25780;SDS011;13626;48.128;11.628;2023-03-30T06:52:09;10.38;;;3.20;;
25780;SDS011;13626;48.128;11.628;2023-03-30T06:54:38;17.88;;;3.25;;
25780;SDS011;13626;48.128;11.628;2023-03-30T06:57:05;15.65;;;3.30;;
25780;SDS011;13626;48.128;11.628;2023-03-30T06:59:33;9.52;;;3.10;;
25780;SDS011;13626;48.128;11.628;2023-03-30T07:02:00;11.57;;;3.08;;
25780;SDS011;13626;48.128;11.628;2023-03-30T07:04:28;6.78;;;2.88;;
25780;SDS011;13626;48.128;11.628;2023-03-30T07:06:55;12.88;;;3.10;;
25780;SDS011;13626;48.128;11.628;2023-03-30T07:09:23;10.77;;;2.95;;
25780;SDS011;13626;48.128;11.628;2023-03-30T07:11:50;15.50;;;3.28;;
25780;SDS011;13626;48.128;11.628;2023-03-30T07:14:21;12.27;;;2.95;;
25780;SDS011;13626;48.128;11.628;2023-03-30T07:16:48;10.93;;;2.85;;
25780;SDS011;13626;48.128;11.628;2023-03-30T07:19:16;10.38;;;2.92;;
25780;SDS011;13626;48.128;11.628;2023-03-30T07:21:43;9.00;;;2.70;;
25780;SDS011;13626;48.128;11.628;2023-03-30T07:24:11;13.43;;;2.60;;
25780;SDS011;13626;48.128;11.628;2023-03-30T07:26:38;9.77;;;2.70;;
25780;SDS011;13626;48.128;11.628;2023-03-30T07:29:05;11.32;;;3.40;;
25780;SDS011;13626;48.128;11.628;2023-03-30T07:31:33;12.38;;;2.58;;
25780;SDS011;13626;48.128;11.628;2023-03-30T07:34:00;9.52;;;2.55;;
25780;SDS011;13626;48.128;11.628;2023-03-30T07:36:28;13.27;;;2.97;;
25780;SDS011;13626;48.128;11.628;2023-03-30T07:38:55;9.07;;;2.60;;
25780;SDS011;13626;48.128;11.628;2023-03-30T07:41:23;14.23;;;2.83;;
25780;SDS011;13626;48.128;11.628;2023-03-30T07:43:51;11.65;;;3.28;;
25780;SDS011;13626;48.128;11.628;2023-03-30T07:46:18;10.02;;;2.47;;
25780;SDS011;13626;48.128;11.628;2023-03-30T07:48:45;13.70;;;2.83;;
25780;SDS011;13626;48.128;11.628;2023-03-30T07:51:12;10.07;;;2.72;;
25780;SDS011;13626;48.128;11.628;2023-03-30T07:53:40;13.07;;;2.75;;
25780;SDS011;13626;48.128;11.628;2023-03-30T07:56:07;8.15;;;2.53;;
25780;SDS011;13626;48.128;11.628;2023-03-30T07:58:34;10.68;;;2.72;;
25780;SDS011;13626;48.128;11.628;2023-03-30T08:01:02;11.02;;;3.45;;
25780;SDS011;13626;48.128;11.628;2023-03-30T08:03:30;10.00;;;2.38;;
25780;SDS011;13626;48.128;11.628;2023-03-30T08:05:59;14.45;;;3.10;;
25780;SDS011;13626;48.128;11.628;2023-03-30T08:08:32;9.60;;;2.78;;
25780;SDS011;13626;48.128;11.628;2023-03-30T08:10:59;10.10;;;3.00;;
25780;SDS011;13626;48.128;11.628;2023-03-30T08:13:27;15.38;;;3.90;;
25780;SDS011;13626;48.128;11.628;2023-03-30T08:15:54;11.68;;;3.50;;
25780;SDS011;13626;48.128;11.628;2023-03-30T08:18:23;10.30;;;2.63;;
25780;SDS011;13626;48.128;11.628;2023-03-30T08:20:54;12.85;;;3.00;;
25780;SDS011;13626;48.128;11.628;2023-03-30T08:23:21;12.65;;;3.10;;
25780;SDS011;13626;48.128;11.628;2023-03-30T08:25:49;14.20;;;3.03;;
25780;SDS011;13626;48.128;11.628;2023-03-30T08:28:18;8.52;;;2.55;;
25780;SDS011;13626;48.128;11.628;2023-03-30T08:30:46;13.00;;;3.30;;
25780;SDS011;13626;48.128;11.628;2023-03-30T08:33:13;9.77;;;2.90;;
25780;SDS011;13626;48.128;11.628;2023-03-30T08:35:44;13.88;;;2.80;;
25780;SDS011;13626;48.128;11.628;2023-03-30T08:38:13;10.20;;;2.28;;
25780;SDS011;13626;48.128;11.628;2023-03-30T08:40:44;10.32;;;2.65;;
25780;SDS011;13626;48.128;11.628;2023-03-30T08:43:32;13.05;;;2.70;;
25780;SDS011;13626;48.128;11.628;2023-03-30T08:46:03;9.55;;;2.78;;
25780;SDS011;13626;48.128;11.628;2023-03-30T08:48:32;9.20;;;2.58;;
25780;SDS011;13626;48.128;11.628;2023-03-30T08:53:52;13.00;;;2.60;;
25780;SDS011;13626;48.128;11.628;2023-03-30T08:56:22;9.65;;;2.70;;
25780;SDS011;13626;48.128;11.628;2023-03-30T09:04:08;11.23;;;2.92;;
25780;SDS011;13626;48.128;11.628;2023-03-30T09:06:45;17.75;;;3.05;;
25780;SDS011;13626;48.128;11.628;2023-03-30T09:09:17;11.57;;;3.50;;
25780;SDS011;13626;48.128;11.628;2023-03-30T09:11:47;6.10;;;2.60;;
25780;SDS011;13626;48.128;11.628;2023-03-30T09:14:26;9.23;;;2.53;;
25780;SDS011;13626;48.128;11.628;2023-03-30T09:17:02;13.13;;;2.70;;
25780;SDS011;13626;48.128;11.628;2023-03-30T09:19:34;9.80;;;2.70;;
25780;SDS011;13626;48.128;11.628;2023-03-30T09:22:02;10.00;;;2.25;;
25780;SDS011;13626;48.128;11.628;2023-03-30T09:24:31;10.02;;;2.13;;
25780;SDS011;13626;48.128;11.628;2023-03-30T09:27:06;7.07;;;2.50;;
25780;SDS011;13626;48.128;11.628;2023-03-30T09:29:42;8.25;;;2.40;;
25780;SDS011;13626;48.128;11.628;2023-03-30T09:34:45;13.30;;;2.97;;
25780;SDS011;13626;48.128;11.628;2023-03-30T09:37:14;9.73;;;2.22;;
25780;SDS011;13626;48.128;11.628;2023-03-30T09:39:44;15.88;;;3.17;;
25780;SDS011;13626;48.128;11.628;2023-03-30T09:42:20;14.57;;;2.53;;
25780;SDS011;13626;48.128;11.628;2023-03-30T09:47:36;11.13;;;2.50;;
25780;SDS011;13626;48.128;11.628;2023-03-30T09:50:08;10.23;;;2.50;;
25780;SDS011;13626;48.128;11.628;2023-03-30T09:52:37;12.82;;;3.00;;
25780;SDS011;13626;48.128;11.628;2023-03-30T09:57:48;9.63;;;3.05;;
25780;SDS011;13626;48.128;11.628;2023-03-30T10:02:56;9.43;;;2.70;;
25780;SDS011;13626;48.128;11.628;2023-03-30T10:05:24;12.25;;;3.20;;
25780;SDS011;13626;48.128;11.628;2023-03-30T10:07:53;10.93;;;2.75;;
25780;SDS011;13626;48.128;11.628;2023-03-30T10:10:34;9.57;;;3.00;;
25780;SDS011;13626;48.128;11.628;2023-03-30T10:13:11;7.20;;;2.53;;
25780;SDS011;13626;48.128;11.628;2023-03-30T10:15:40;11.32;;;3.58;;
25780;SDS011;13626;48.128;11.628;2023-03-30T10:18:25;10.38;;;2.53;;
25780;SDS011;13626;48.128;11.628;2023-03-30T10:21:00;13.57;;;3.15;;
25780;SDS011;13626;48.128;11.628;2023-03-30T10:23:35;10.17;;;2.87;;
25780;SDS011;13626;48.128;11.628;2023-03-30T10:26:06;13.93;;;3.25;;
25780;SDS011;13626;48.128;11.628;2023-03-30T10:28:35;10.38;;;3.20;;
25780;SDS011;13626;48.128;11.628;2023-03-30T10:31:03;11.60;;;2.92;;
25780;SDS011;13626;48.128;11.628;2023-03-30T10:33:37;15.20;;;3.45;;
25780;SDS011;13626;48.128;11.628;2023-03-30T10:36:05;13.35;;;3.58;;
25780;SDS011;13626;48.128;11.628;2023-03-30T10:38:33;16.92;;;3.05;;
25780;SDS011;13626;48.128;11.628;2023-03-30T10:41:19;10.23;;;2.83;;
25780;SDS011;13626;48.128;11.628;2023-03-30T10:43:46;13.98;;;3.38;;
25780;SDS011;13626;48.128;11.628;2023-03-30T10:46:19;8.02;;;3.00;;
25780;SDS011;13626;48.128;11.628;2023-03-30T10:48:53;13.60;;;3.10;;
25780;SDS011;13626;48.128;11.628;2023-03-30T11:04:11;13.70;;;2.80;;
25780;SDS011;13626;48.128;11.628;2023-03-30T11:06:49;12.77;;;3.13;;
25780;SDS011;13626;48.128;11.628;2023-03-30T11:09:20;14.48;;;2.45;;
25780;SDS011;13626;48.128;11.628;2023-03-30T11:11:57;8.43;;;2.80;;
25780;SDS011;13626;48.128;11.628;2023-03-30T11:14:29;9.93;;;2.67;;
25780;SDS011;13626;48.128;11.628;2023-03-30T11:17:00;9.63;;;2.50;;
25780;SDS011;13626;48.128;11.628;2023-03-30T11:19:34;13.68;;;3.17;;
25780;SDS011;13626;48.128;11.628;2023-03-30T11:24:43;14.48;;;3.03;;
25780;SDS011;13626;48.128;11.628;2023-03-30T11:27:16;9.48;;;2.45;;
25780;SDS011;13626;48.128;11.628;2023-03-30T11:37:39;10.98;;;3.08;;
25780;SDS011;13626;48.128;11.628;2023-03-30T11:40:18;10.93;;;3.15;;
25780;SDS011;13626;48.128;11.628;2023-03-30T11:42:47;8.95;;;2.50;;
25780;SDS011;13626;48.128;11.628;2023-03-30T11:48:04;10.13;;;2.33;;
25780;SDS011;13626;48.128;11.628;2023-03-30T11:50:37;8.80;;;2.88;;
25780;SDS011;13626;48.128;11.628;2023-03-30T11:53:12;9.65;;;2.38;;
25780;SDS011;13626;48.128;11.628;2023-03-30T11:55:55;5.18;;;2.17;;
25780;SDS011;13626;48.128;11.628;2023-03-30T11:58:33;5.15;;;2.63;;
25780;SDS011;13626;48.128;11.628;2023-03-30T12:01:25;5.38;;;2.30;;
25780;SDS011;13626;48.128;11.628;2023-03-30T12:03:52;9.32;;;2.80;;
25780;SDS011;13626;48.128;11.628;2023-03-30T12:16:51;6.18;;;2.55;;
25780;SDS011;13626;48.128;11.628;2023-03-30T12:19:22;9.35;;;2.85;;
25780;SDS011;13626;48.128;11.628;2023-03-30T12:21:52;5.85;;;2.80;;
25780;SDS011;13626;48.128;11.628;2023-03-30T12:27:03;10.43;;;2.72;;
25780;SDS011;13626;48.128;11.628;2023-03-30T12:29:43;8.98;;;3.10;;
25780;SDS011;13626;48.128;11.628;2023-03-30T12:32:27;8.52;;;3.28;;
25780;SDS011;13626;48.128;11.628;2023-03-30T12:34:55;8.32;;;3.10;;
25780;SDS011;13626;48.128;11.628;2023-03-30T12:37:41;8.23;;;2.85;;
25780;SDS011;13626;48.128;11.628;2023-03-30T12:40:14;7.68;;;3.00;;
25780;SDS011;13626;48.128;11.628;2023-03-30T12:42:49;6.88;;;3.15;;
25780;SDS011;13626;48.128;11.628;2023-03-30T12:53:30;7.22;;;2.55;;
25780;SDS011;13626;48.128;11.628;2023-03-30T13:03:44;8.07;;;2.55;;
25780;SDS011;13626;48.128;11.628;2023-03-30T13:06:19;5.65;;;2.40;;
25780;SDS011;13626;48.128;11.628;2023-03-30T13:08:52;8.13;;;2.67;;
25780;SDS011;13626;48.128;11.628;2023-03-30T13:11:23;5.55;;;2.33;;
25780;SDS011;13626;48.128;11.628;2023-03-30T13:13:54;4.65;;;2.78;;
25780;SDS011;13626;48.128;11.628;2023-03-30T13:29:40;3.55;;;1.67;;
25780;SDS011;13626;48.128;11.628;2023-03-30T13:32:18;7.25;;;2.10;;
25780;SDS011;13626;48.128;11.628;2023-03-30T13:37:35;3.63;;;1.58;;
25780;SDS011;13626;48.128;11.628;2023-03-30T13:40:11;4.03;;;1.70;;
25780;SDS011;13626;48.128;11.628;2023-03-30T13:48:20;8.43;;;2.25;;
25780;SDS011;13626;48.128;11.628;2023-03-30T13:50:52;2.63;;;1.60;;
25780;SDS011;13626;48.128;11.628;2023-03-30T13:53:21;2.75;;;1.50;;
25780;SDS011;13626;48.128;11.628;2023-03-30T13:55:49;6.50;;;1.70;;
25780;SDS011;13626;48.128;11.628;2023-03-30T13:58:17;3.63;;;1.63;;
25780;SDS011;13626;48.128;11.628;2023-03-30T14:00:49;5.93;;;1.80;;
25780;SDS011;13626;48.128;11.628;2023-03-30T14:03:24;4.45;;;2.13;;
25780;SDS011;13626;48.128;11.628;2023-03-30T14:05:53;6.55;;;1.85;;
25780;SDS011;13626;48.128;11.628;2023-03-30T14:08:20;6.30;;;2.00;;
25780;SDS011;13626;48.128;11.628;2023-03-30T14:10:48;5.68;;;2.35;;
25780;SDS011;13626;48.128;11.628;2023-03-30T14:13:17;5.50;;;2.38;;
25780;SDS011;13626;48.128;11.628;2023-03-30T14:15:44;8.85;;;2.78;;
25780;SDS011;13626;48.128;11.628;2023-03-30T14:18:12;5.20;;;2.72;;
25780;SDS011;13626;48.128;11.628;2023-03-30T14:20:47;6.18;;;1.95;;
25780;SDS011;13626;48.128;11.628;2023-03-30T14:23:37;8.32;;;2.00;;
25780;SDS011;13626;48.128;11.628;2023-03-30T14:26:13;6.07;;;1.80;;
25780;SDS011;13626;48.128;11.628;2023-03-30T14:28:42;5.40;;;1.92;;
25780;SDS011;13626;48.128;11.628;2023-03-30T14:31:18;5.18;;;2.00;;
25780;SDS011;13626;48.128;11.628;2023-03-30T14:33:46;5.18;;;2.10;;
25780;SDS011;13626;48.128;11.628;2023-03-30T14:36:14;5.93;;;2.05;;
25780;SDS011;13626;48.128;11.628;2023-03-30T14:38:44;5.65;;;2.40;;
25780;SDS011;13626;48.128;11.628;2023-03-30T14:41:23;4.45;;;2.20;;
25780;SDS011;13626;48.128;11.628;2023-03-30T14:43:54;5.88;;;2.55;;
25780;SDS011;13626;48.128;11.628;2023-03-30T14:46:22;7.07;;;2.13;;
25780;SDS011;13626;48.128;11.628;2023-03-30T14:48:50;4.85;;;2.55;;
25780;SDS011;13626;48.128;11.628;2023-03-30T14:51:22;5.97;;;2.47;;
25780;SDS011;13626;48.128;11.628;2023-03-30T14:53:52;5.15;;;2.40;;
25780;SDS011;13626;48.128;11.628;2023-03-30T14:56:21;7.60;;;2.38;;
25780;SDS011;13626;48.128;11.628;2023-03-30T14:58:49;5.50;;;2.28;;
25780;SDS011;13626;48.128;11.628;2023-03-30T15:01:25;5.90;;;2.30;;
25780;SDS011;13626;48.128;11.628;2023-03-30T15:04:15;6.20;;;2.63;;
25780;SDS011;13626;48.128;11.628;2023-03-30T15:06:46;6.40;;;2.13;;
25780;SDS011;13626;48.128;11.628;2023-03-30T15:09:14;11.10;;;3.30;;
25780;SDS011;13626;48.128;11.628;2023-03-30T15:11:43;5.38;;;2.45;;
25780;SDS011;13626;48.128;11.628;2023-03-30T15:14:15;6.53;;;2.50;;
25780;SDS011;13626;48.128;11.628;2023-03-30T15:16:44;6.00;;;2.85;;
25780;SDS011;13626;48.128;11.628;2023-03-30T15:19:17;6.15;;;2.95;;
25780;SDS011;13626;48.128;11.628;2023-03-30T15:21:49;8.63;;;3.10;;
25780;SDS011;13626;48.128;11.628;2023-03-30T15:24:17;11.13;;;3.03;;
25780;SDS011;13626;48.128;11.628;2023-03-30T15:26:47;6.75;;;3.17;;
25780;SDS011;13626;48.128;11.628;2023-03-30T15:29:15;10.68;;;3.80;;
25780;SDS011;13626;48.128;11.628;2023-03-30T15:31:43;7.38;;;3.33;;
25780;SDS011;13626;48.128;11.628;2023-03-30T15:34:14;6.88;;;3.60;;
25780;SDS011;13626;48.128;11.628;2023-03-30T15:36:42;10.63;;;3.75;;
25780;SDS011;13626;48.128;11.628;2023-03-30T15:39:21;7.68;;;3.55;;
25780;SDS011;13626;48.128;11.628;2023-03-30T15:41:57;9.30;;;3.10;;
25780;SDS011;13626;48.128;11.628;2023-03-30T15:44:26;7.70;;;2.97;;
25780;SDS011;13626;48.128;11.628;2023-03-30T15:46:55;7.28;;;3.25;;
25780;SDS011;13626;48.128;11.628;2023-03-30T15:49:26;9.02;;;3.08;;
25780;SDS011;13626;48.128;11.628;2023-03-30T15:51:57;6.35;;;2.90;;
25780;SDS011;13626;48.128;11.628;2023-03-30T15:54:37;4.65;;;2.90;;
25780;SDS011;13626;48.128;11.628;2023-03-30T15:59:38;5.22;;;3.20;;
25780;SDS011;13626;48.128;11.628;2023-03-30T16:02:13;9.52;;;3.30;;
25780;SDS011;13626;48.128;11.628;2023-03-30T16:04:41;6.20;;;2.97;;
25780;SDS011;13626;48.128;11.628;2023-03-30T16:07:13;6.90;;;3.38;;
25780;SDS011;13626;48.128;11.628;2023-03-30T16:09:41;6.80;;;3.70;;
25780;SDS011;13626;48.128;11.628;2023-03-30T16:12:13;8.25;;;3.60;;
25780;SDS011;13626;48.128;11.628;2023-03-30T16:14:40;7.75;;;3.28;;
25780;SDS011;13626;48.128;11.628;2023-03-30T16:17:08;8.73;;;3.50;;
25780;SDS011;13626;48.128;11.628;2023-03-30T16:19:38;5.43;;;3.50;;
25780;SDS011;13626;48.128;11.628;2023-03-30T16:22:06;7.97;;;3.63;;
25780;SDS011;13626;48.128;11.628;2023-03-30T16:24:34;7.05;;;3.30;;
25780;SDS011;13626;48.128;11.628;2023-03-30T16:27:02;7.93;;;4.10;;
25780;SDS011;13626;48.128;11.628;2023-03-30T16:29:30;9.68;;;3.45;;
25780;SDS011;13626;48.128;11.628;2023-03-30T16:31:58;5.85;;;3.22;;
25780;SDS011;13626;48.128;11.628;2023-03-30T16:34:26;5.57;;;3.45;;
25780;SDS011;13626;48.128;11.628;2023-03-30T16:36:53;7.68;;;3.92;;
25780;SDS011;13626;48.128;11.628;2023-03-30T16:39:24;8.95;;;3.60;;
25780;SDS011;13626;48.128;11.628;2023-03-30T16:41:53;7.72;;;3.30;;
25780;SDS011;13626;48.128;11.628;2023-03-30T16:44:20;7.97;;;3.50;;
25780;SDS011;13626;48.128;11.628;2023-03-30T16:46:48;6.13;;;3.30;;
25780;SDS011;13626;48.128;11.628;2023-03-30T16:49:20;6.65;;;3.67;;
25780;SDS011;13626;48.128;11.628;2023-03-30T16:51:48;8.80;;;3.45;;
25780;SDS011;13626;48.128;11.628;2023-03-30T16:54:15;7.80;;;3.58;;
25780;SDS011;13626;48.128;11.628;2023-03-30T16:56:57;6.05;;;3.60;;
25780;SDS011;13626;48.128;11.628;2023-03-30T16:59:25;7.38;;;4.03;;
25780;SDS011;13626;48.128;11.628;2023-03-30T17:01:54;6.00;;;3.47;;
25780;SDS011;13626;48.128;11.628;2023-03-30T17:04:21;12.05;;;4.75;;
25780;SDS011;13626;48.128;11.628;2023-03-30T17:06:48;7.78;;;4.10;;